sensor_id;sensor_type;location;lat;lon;timestamp;P1;durP1;ratioP1;P2;durP2;ratioP2
44762;SDS011;30483;49.576;6.036;2023-11-19T04:01:41;3.15;;;2.05;;
44762;SDS011;30483;49.576;6.036;2023-11-19T04:04:06;2.55;;;1.55;;
44762;SDS011;30483;49.576;6.036;2023-11-19T04:06:32;2.15;;;1.60;;
44762;SDS011;30483;49.576;6.036;2023-11-19T04:08:57;3.47;;;1.80;;
44762;SDS011;30483;49.576;6.036;2023-11-19T04:11:23;2.63;;;1.83;;
44762;SDS011;30483;49.576;6.036;2023-11-19T04:13:48;3.72;;;2.05;;
44762;SDS011;30483;49.576;6.036;2023-11-19T04:16:14;4.40;;;2.00;;
44762;SDS011;30483;49.576;6.036;2023-11-19T04:18:40;3.30;;;1.70;;
44762;SDS011;30483;49.576;6.036;2023-11-19T04:21:06;3.17;;;1.90;;
44762;SDS011;30483;49.576;6.036;2023-11-19T04:23:32;2.92;;;1.42;;
44762;SDS011;30483;49.576;6.036;2023-11-19T04:26:01;3.65;;;2.10;;
44762;SDS011;30483;49.576;6.036;2023-11-19T04:28:27;2.78;;;1.45;;
44762;SDS011;30483;49.576;6.036;2023-11-19T04:30:52;3.95;;;1.63;;
44762;SDS011;30483;49.576;6.036;2023-11-19T04:33:18;2.38;;;1.42;;
44762;SDS011;30483;49.576;6.036;2023-11-19T04:35:44;2.67;;;1.60;;
44762;SDS011;30483;49.576;6.036;2023-11-19T04:38:09;3.20;;;1.50;;
44762;SDS011;30483;49.576;6.036;2023-11-19T04:40:35;2.53;;;1.50;;
44762;SDS011;30483;49.576;6.036;2023-11-19T04:43:01;2.75;;;1.60;;
44762;SDS011;30483;49.576;6.036;2023-11-19T04:45:27;4.28;;;1.65;;
44762;SDS011;30483;49.576;6.036;2023-11-19T04:47:52;3.80;;;1.63;;
44762;SDS011;30483;49.576;6.036;2023-11-19T04:50:18;3.65;;;1.70;;
44762;SDS011;30483;49.576;6.036;2023-11-19T04:55:12;4.05;;;1.98;;
44762;SDS011;30483;49.576;6.036;2023-11-19T04:57:39;3.72;;;1.25;;
44762;SDS011;30483;49.576;6.036;2023-11-19T05:00:05;5.35;;;1.48;;
44762;SDS011;30483;49.576;6.036;2023-11-19T05:02:33;4.30;;;1.40;;
44762;SDS011;30483;49.576;6.036;2023-11-19T05:04:59;3.10;;;1.48;;
44762;SDS011;30483;49.576;6.036;2023-11-19T05:07:25;2.58;;;1.20;;
44762;SDS011;30483;49.576;6.036;2023-11-19T05:09:51;2.40;;;1.20;;
44762;SDS011;30483;49.576;6.036;2023-11-19T05:12:17;3.13;;;1.40;;
44762;SDS011;30483;49.576;6.036;2023-11-19T05:14:42;3.00;;;1.35;;
44762;SDS011;30483;49.576;6.036;2023-11-19T05:17:14;3.05;;;1.23;;
44762;SDS011;30483;49.576;6.036;2023-11-19T05:19:39;3.75;;;1.30;;
44762;SDS011;30483;49.576;6.036;2023-11-19T05:22:05;2.50;;;1.42;;
44762;SDS011;30483;49.576;6.036;2023-11-19T05:24:32;2.65;;;1.30;;
44762;SDS011;30483;49.576;6.036;2023-11-19T05:26:58;2.80;;;1.27;;
44762;SDS011;30483;49.576;6.036;2023-11-19T05:29:23;4.68;;;1.63;;
44762;SDS011;30483;49.576;6.036;2023-11-19T05:31:49;4.30;;;1.27;;
44762;SDS011;30483;49.576;6.036;2023-11-19T05:34:14;2.53;;;1.13;;
44762;SDS011;30483;49.576;6.036;2023-11-19T05:36:40;4.15;;;1.23;;
44762;SDS011;30483;49.576;6.036;2023-11-19T05:39:06;2.40;;;1.35;;
44762;SDS011;30483;49.576;6.036;2023-11-19T05:41:31;2.95;;;1.30;;
44762;SDS011;30483;49.576;6.036;2023-11-19T05:43:57;2.80;;;1.30;;
44762;SDS011;30483;49.576;6.036;2023-11-19T05:46:22;3.00;;;1.30;;
44762;SDS011;30483;49.576;6.036;2023-11-19T05:48:50;2.67;;;1.20;;
44762;SDS011;30483;49.576;6.036;2023-11-19T05:51:16;2.83;;;1.27;;
44762;SDS011;30483;49.576;6.036;2023-11-19T05:53:42;3.10;;;1.10;;
44762;SDS011;30483;49.576;6.036;2023-11-19T05:56:08;2.05;;;1.10;;
44762;SDS011;30483;49.576;6.036;2023-11-19T05:58:34;2.70;;;1.10;;
44762;SDS011;30483;49.576;6.036;2023-11-19T06:01:01;2.40;;;1.10;;
44762;SDS011;30483;49.576;6.036;2023-11-19T06:03:27;3.25;;;1.08;;
44762;SDS011;30483;49.576;6.036;2023-11-19T06:05:53;2.95;;;1.10;;
44762;SDS011;30483;49.576;6.036;2023-11-19T06:08:21;1.83;;;1.00;;
44762;SDS011;30483;49.576;6.036;2023-11-19T06:10:47;3.35;;;1.33;;
44762;SDS011;30483;49.576;6.036;2023-11-19T06:13:14;4.22;;;1.42;;
44762;SDS011;30483;49.576;6.036;2023-11-19T06:15:41;2.53;;;1.15;;
44762;SDS011;30483;49.576;6.036;2023-11-19T06:18:07;3.72;;;1.23;;
44762;SDS011;30483;49.576;6.036;2023-11-19T06:20:33;2.80;;;1.10;;
44762;SDS011;30483;49.576;6.036;2023-11-19T06:22:59;2.13;;;1.00;;
44762;SDS011;30483;49.576;6.036;2023-11-19T06:25:25;5.25;;;1.40;;
44762;SDS011;30483;49.576;6.036;2023-11-19T06:27:51;4.18;;;1.05;;
44762;SDS011;30483;49.576;6.036;2023-11-19T06:30:17;3.05;;;1.15;;
44762;SDS011;30483;49.576;6.036;2023-11-19T06:32:43;4.55;;;1.40;;
44762;SDS011;30483;49.576;6.036;2023-11-19T06:35:09;1.90;;;1.15;;
44762;SDS011;30483;49.576;6.036;2023-11-19T06:37:35;3.33;;;1.13;;
44762;SDS011;30483;49.576;6.036;2023-11-19T06:40:03;3.67;;;1.20;;
44762;SDS011;30483;49.576;6.036;2023-11-19T06:42:30;3.97;;;1.35;;
44762;SDS011;30483;49.576;6.036;2023-11-19T06:44:56;2.53;;;1.10;;
44762;SDS011;30483;49.576;6.036;2023-11-19T06:47:22;1.80;;;0.88;;
44762;SDS011;30483;49.576;6.036;2023-11-19T06:49:52;3.53;;;1.02;;
44762;SDS011;30483;49.576;6.036;2023-11-19T06:52:18;1.92;;;0.90;;
44762;SDS011;30483;49.576;6.036;2023-11-19T06:54:44;2.78;;;1.13;;
44762;SDS011;30483;49.576;6.036;2023-11-19T06:57:10;3.05;;;1.13;;
44762;SDS011;30483;49.576;6.036;2023-11-19T06:59:36;2.47;;;1.05;;
44762;SDS011;30483;49.576;6.036;2023-11-19T07:02:02;2.30;;;0.90;;
44762;SDS011;30483;49.576;6.036;2023-11-19T07:04:29;3.60;;;0.90;;
44762;SDS011;30483;49.576;6.036;2023-11-19T07:06:55;2.38;;;0.80;;
44762;SDS011;30483;49.576;6.036;2023-11-19T07:09:21;2.92;;;0.90;;
44762;SDS011;30483;49.576;6.036;2023-11-19T07:11:48;2.67;;;1.05;;
44762;SDS011;30483;49.576;6.036;2023-11-19T07:14:15;2.55;;;1.05;;
44762;SDS011;30483;49.576;6.036;2023-11-19T07:16:41;2.67;;;0.93;;
44762;SDS011;30483;49.576;6.036;2023-11-19T07:19:08;1.90;;;1.00;;
44762;SDS011;30483;49.576;6.036;2023-11-19T07:21:34;3.63;;;1.00;;
44762;SDS011;30483;49.576;6.036;2023-11-19T07:24:04;3.28;;;0.90;;
44762;SDS011;30483;49.576;6.036;2023-11-19T07:26:30;3.40;;;1.02;;
44762;SDS011;30483;49.576;6.036;2023-11-19T07:28:56;3.50;;;1.00;;
44762;SDS011;30483;49.576;6.036;2023-11-19T07:31:22;4.63;;;1.17;;
44762;SDS011;30483;49.576;6.036;2023-11-19T07:33:48;7.63;;;0.90;;
44762;SDS011;30483;49.576;6.036;2023-11-19T07:36:14;7.82;;;1.10;;
44762;SDS011;30483;49.576;6.036;2023-11-19T07:38:41;7.72;;;1.15;;
44762;SDS011;30483;49.576;6.036;2023-11-19T07:41:07;5.88;;;1.40;;
44762;SDS011;30483;49.576;6.036;2023-11-19T07:43:39;5.25;;;1.15;;
44762;SDS011;30483;49.576;6.036;2023-11-19T07:46:10;4.47;;;1.33;;
44762;SDS011;30483;49.576;6.036;2023-11-19T07:48:37;4.18;;;1.25;;
44762;SDS011;30483;49.576;6.036;2023-11-19T07:51:03;3.47;;;0.93;;
44762;SDS011;30483;49.576;6.036;2023-11-19T07:53:29;4.75;;;1.20;;
44762;SDS011;30483;49.576;6.036;2023-11-19T07:55:55;4.85;;;1.20;;
44762;SDS011;30483;49.576;6.036;2023-11-19T07:58:21;5.03;;;1.38;;
44762;SDS011;30483;49.576;6.036;2023-11-19T08:00:47;3.88;;;1.10;;
44762;SDS011;30483;49.576;6.036;2023-11-19T08:03:13;3.30;;;1.08;;
44762;SDS011;30483;49.576;6.036;2023-11-19T08:05:39;4.15;;;1.17;;
44762;SDS011;30483;49.576;6.036;2023-11-19T08:08:07;2.53;;;0.90;;
44762;SDS011;30483;49.576;6.036;2023-11-19T08:10:33;4.93;;;1.20;;
44762;SDS011;30483;49.576;6.036;2023-11-19T08:12:59;2.17;;;0.98;;
44762;SDS011;30483;49.576;6.036;2023-11-19T08:15:25;3.10;;;1.20;;
44762;SDS011;30483;49.576;6.036;2023-11-19T08:17:51;6.28;;;1.63;;
44762;SDS011;30483;49.576;6.036;2023-11-19T08:20:16;6.93;;;1.52;;
44762;SDS011;30483;49.576;6.036;2023-11-19T08:22:42;8.23;;;1.73;;
44762;SDS011;30483;49.576;6.036;2023-11-19T08:25:08;7.18;;;1.67;;
44762;SDS011;30483;49.576;6.036;2023-11-19T08:27:34;4.22;;;1.50;;
44762;SDS011;30483;49.576;6.036;2023-11-19T08:30:00;6.60;;;1.40;;
44762;SDS011;30483;49.576;6.036;2023-11-19T08:32:26;11.15;;;1.58;;
44762;SDS011;30483;49.576;6.036;2023-11-19T08:34:53;6.45;;;1.30;;
44762;SDS011;30483;49.576;6.036;2023-11-19T08:37:19;12.27;;;1.58;;
44762;SDS011;30483;49.576;6.036;2023-11-19T08:39:47;7.53;;;1.83;;
44762;SDS011;30483;49.576;6.036;2023-11-19T08:42:13;6.55;;;1.50;;
44762;SDS011;30483;49.576;6.036;2023-11-19T08:44:39;8.32;;;1.50;;
44762;SDS011;30483;49.576;6.036;2023-11-19T08:47:08;8.90;;;1.60;;
44762;SDS011;30483;49.576;6.036;2023-11-19T08:49:34;5.80;;;1.40;;
44762;SDS011;30483;49.576;6.036;2023-11-19T08:52:00;6.15;;;1.67;;
44762;SDS011;30483;49.576;6.036;2023-11-19T08:54:27;6.93;;;1.27;;
44762;SDS011;30483;49.576;6.036;2023-11-19T08:56:53;5.57;;;1.55;;
44762;SDS011;30483;49.576;6.036;2023-11-19T08:59:19;7.00;;;1.55;;
44762;SDS011;30483;49.576;6.036;2023-11-19T09:01:45;6.68;;;1.30;;
44762;SDS011;30483;49.576;6.036;2023-11-19T09:04:11;6.10;;;1.63;;
44762;SDS011;30483;49.576;6.036;2023-11-19T09:06:37;8.02;;;1.40;;
44762;SDS011;30483;49.576;6.036;2023-11-19T09:09:04;5.13;;;1.38;;
44762;SDS011;30483;49.576;6.036;2023-11-19T09:11:30;6.85;;;1.55;;
44762;SDS011;30483;49.576;6.036;2023-11-19T09:13:56;5.57;;;1.40;;
44762;SDS011;30483;49.576;6.036;2023-11-19T09:16:22;6.55;;;1.55;;
44762;SDS011;30483;49.576;6.036;2023-11-19T09:18:49;5.22;;;1.35;;
44762;SDS011;30483;49.576;6.036;2023-11-19T09:21:15;2.65;;;1.05;;
44762;SDS011;30483;49.576;6.036;2023-11-19T09:23:41;4.80;;;1.10;;
44762;SDS011;30483;49.576;6.036;2023-11-19T09:26:08;5.80;;;1.50;;
44762;SDS011;30483;49.576;6.036;2023-11-19T09:28:37;6.72;;;1.48;;
44762;SDS011;30483;49.576;6.036;2023-11-19T09:31:03;4.43;;;1.52;;
44762;SDS011;30483;49.576;6.036;2023-11-19T09:33:38;5.35;;;1.30;;
44762;SDS011;30483;49.576;6.036;2023-11-19T09:36:04;7.30;;;1.67;;
44762;SDS011;30483;49.576;6.036;2023-11-19T09:38:31;6.55;;;1.55;;
44762;SDS011;30483;49.576;6.036;2023-11-19T09:40:58;3.72;;;1.17;;
44762;SDS011;30483;49.576;6.036;2023-11-19T09:43:24;6.32;;;1.38;;
44762;SDS011;30483;49.576;6.036;2023-11-19T09:45:53;6.43;;;1.70;;
44762;SDS011;30483;49.576;6.036;2023-11-19T09:48:20;7.90;;;1.70;;
44762;SDS011;30483;49.576;6.036;2023-11-19T09:50:47;8.32;;;1.95;;
44762;SDS011;30483;49.576;6.036;2023-11-19T09:53:13;4.88;;;1.90;;
44762;SDS011;30483;49.576;6.036;2023-11-19T09:55:40;6.97;;;1.48;;
44762;SDS011;30483;49.576;6.036;2023-11-19T09:58:06;6.13;;;1.30;;
44762;SDS011;30483;49.576;6.036;2023-11-19T10:00:33;6.38;;;1.60;;
44762;SDS011;30483;49.576;6.036;2023-11-19T10:02:59;6.50;;;1.95;;
44762;SDS011;30483;49.576;6.036;2023-11-19T10:05:25;6.57;;;1.40;;
44762;SDS011;30483;49.576;6.036;2023-11-19T10:07:52;5.15;;;1.42;;
44762;SDS011;30483;49.576;6.036;2023-11-19T10:10:20;6.25;;;1.40;;
44762;SDS011;30483;49.576;6.036;2023-11-19T10:12:46;6.25;;;1.42;;
44762;SDS011;30483;49.576;6.036;2023-11-19T10:15:22;3.72;;;1.58;;
44762;SDS011;30483;49.576;6.036;2023-11-19T10:17:49;6.15;;;1.50;;
44762;SDS011;30483;49.576;6.036;2023-11-19T10:20:15;4.32;;;1.30;;
44762;SDS011;30483;49.576;6.036;2023-11-19T10:22:41;4.55;;;1.30;;
44762;SDS011;30483;49.576;6.036;2023-11-19T10:25:26;5.28;;;1.40;;
44762;SDS011;30483;49.576;6.036;2023-11-19T10:27:52;5.50;;;1.65;;
44762;SDS011;30483;49.576;6.036;2023-11-19T10:30:25;7.28;;;1.88;;
44762;SDS011;30483;49.576;6.036;2023-11-19T10:35:41;7.68;;;1.40;;
44762;SDS011;30483;49.576;6.036;2023-11-19T10:38:19;6.25;;;1.50;;
44762;SDS011;30483;49.576;6.036;2023-11-19T10:40:47;6.15;;;1.60;;
44762;SDS011;30483;49.576;6.036;2023-11-19T10:43:13;6.70;;;1.50;;
44762;SDS011;30483;49.576;6.036;2023-11-19T10:45:39;6.70;;;1.55;;
44762;SDS011;30483;49.576;6.036;2023-11-19T10:48:05;5.25;;;1.50;;
44762;SDS011;30483;49.576;6.036;2023-11-19T10:50:38;5.38;;;1.48;;
44762;SDS011;30483;49.576;6.036;2023-11-19T10:53:05;6.90;;;1.55;;
44762;SDS011;30483;49.576;6.036;2023-11-19T10:55:35;6.40;;;1.48;;
44762;SDS011;30483;49.576;6.036;2023-11-19T10:58:01;11.48;;;1.70;;
44762;SDS011;30483;49.576;6.036;2023-11-19T11:00:37;6.35;;;1.42;;
44762;SDS011;30483;49.576;6.036;2023-11-19T11:03:05;4.28;;;1.40;;
44762;SDS011;30483;49.576;6.036;2023-11-19T11:05:35;11.27;;;1.60;;
44762;SDS011;30483;49.576;6.036;2023-11-19T11:08:02;7.88;;;1.70;;
44762;SDS011;30483;49.576;6.036;2023-11-19T11:10:31;6.15;;;1.60;;
44762;SDS011;30483;49.576;6.036;2023-11-19T11:13:00;6.35;;;1.65;;
44762;SDS011;30483;49.576;6.036;2023-11-19T11:15:29;4.75;;;1.75;;
44762;SDS011;30483;49.576;6.036;2023-11-19T11:17:57;4.88;;;1.40;;
44762;SDS011;30483;49.576;6.036;2023-11-19T11:20:26;7.57;;;1.92;;
44762;SDS011;30483;49.576;6.036;2023-11-19T11:25:55;5.72;;;1.58;;
44762;SDS011;30483;49.576;6.036;2023-11-19T11:31:15;5.85;;;1.50;;
44762;SDS011;30483;49.576;6.036;2023-11-19T11:36:22;7.07;;;1.80;;
44762;SDS011;30483;49.576;6.036;2023-11-19T11:38:48;6.07;;;1.52;;
44762;SDS011;30483;49.576;6.036;2023-11-19T11:41:21;6.70;;;1.40;;
44762;SDS011;30483;49.576;6.036;2023-11-19T11:49:00;4.82;;;1.30;;
44762;SDS011;30483;49.576;6.036;2023-11-19T11:59:31;4.72;;;1.27;;
44762;SDS011;30483;49.576;6.036;2023-11-19T12:01:57;6.50;;;1.27;;
44762;SDS011;30483;49.576;6.036;2023-11-19T12:04:26;10.10;;;1.73;;
44762;SDS011;30483;49.576;6.036;2023-11-19T12:09:31;5.97;;;1.48;;
44762;SDS011;30483;49.576;6.036;2023-11-19T12:12:07;8.75;;;1.38;;
44762;SDS011;30483;49.576;6.036;2023-11-19T12:20:02;6.00;;;1.70;;
44762;SDS011;30483;49.576;6.036;2023-11-19T12:22:37;5.28;;;1.33;;
44762;SDS011;30483;49.576;6.036;2023-11-19T12:25:04;6.95;;;1.65;;
44762;SDS011;30483;49.576;6.036;2023-11-19T12:27:30;5.65;;;1.58;;
44762;SDS011;30483;49.576;6.036;2023-11-19T12:29:58;4.43;;;1.35;;
44762;SDS011;30483;49.576;6.036;2023-11-19T12:32:24;4.43;;;1.35;;
44762;SDS011;30483;49.576;6.036;2023-11-19T12:34:50;4.88;;;1.58;;
44762;SDS011;30483;49.576;6.036;2023-11-19T12:37:16;4.65;;;1.35;;
44762;SDS011;30483;49.576;6.036;2023-11-19T12:39:42;6.15;;;1.50;;
44762;SDS011;30483;49.576;6.036;2023-11-19T12:42:08;6.35;;;1.70;;
44762;SDS011;30483;49.576;6.036;2023-11-19T12:44:36;6.05;;;1.50;;
44762;SDS011;30483;49.576;6.036;2023-11-19T12:47:03;6.22;;;1.55;;
44762;SDS011;30483;49.576;6.036;2023-11-19T12:49:29;7.20;;;1.60;;
44762;SDS011;30483;49.576;6.036;2023-11-19T12:51:56;5.18;;;1.40;;
44762;SDS011;30483;49.576;6.036;2023-11-19T12:54:35;6.22;;;1.52;;
44762;SDS011;30483;49.576;6.036;2023-11-19T12:57:01;4.53;;;1.17;;
44762;SDS011;30483;49.576;6.036;2023-11-19T12:59:27;3.97;;;1.48;;
44762;SDS011;30483;49.576;6.036;2023-11-19T13:01:54;6.03;;;1.50;;
44762;SDS011;30483;49.576;6.036;2023-11-19T13:04:20;4.82;;;1.35;;
44762;SDS011;30483;49.576;6.036;2023-11-19T13:06:46;6.80;;;1.58;;
44762;SDS011;30483;49.576;6.036;2023-11-19T13:09:26;3.95;;;1.40;;
44762;SDS011;30483;49.576;6.036;2023-11-19T13:11:53;7.07;;;1.85;;
44762;SDS011;30483;49.576;6.036;2023-11-19T13:14:19;5.85;;;1.30;;
44762;SDS011;30483;49.576;6.036;2023-11-19T13:16:45;7.18;;;1.60;;
44762;SDS011;30483;49.576;6.036;2023-11-19T13:19:12;7.20;;;1.55;;
44762;SDS011;30483;49.576;6.036;2023-11-19T13:21:38;5.65;;;1.50;;
44762;SDS011;30483;49.576;6.036;2023-11-19T13:24:07;4.80;;;1.25;;
44762;SDS011;30483;49.576;6.036;2023-11-19T13:26:34;5.25;;;1.10;;
44762;SDS011;30483;49.576;6.036;2023-11-19T13:29:00;5.38;;;1.40;;
44762;SDS011;30483;49.576;6.036;2023-11-19T13:31:26;11.70;;;1.77;;
44762;SDS011;30483;49.576;6.036;2023-11-19T13:33:52;10.30;;;2.10;;
44762;SDS011;30483;49.576;6.036;2023-11-19T13:36:18;13.27;;;2.10;;
44762;SDS011;30483;49.576;6.036;2023-11-19T13:38:44;9.63;;;2.33;;
44762;SDS011;30483;49.576;6.036;2023-11-19T13:41:11;12.02;;;2.13;;
44762;SDS011;30483;49.576;6.036;2023-11-19T13:43:38;11.13;;;2.05;;
44762;SDS011;30483;49.576;6.036;2023-11-19T13:46:04;10.27;;;2.00;;
44762;SDS011;30483;49.576;6.036;2023-11-19T13:48:30;9.75;;;2.05;;
44762;SDS011;30483;49.576;6.036;2023-11-19T13:50:57;9.35;;;1.85;;
44762;SDS011;30483;49.576;6.036;2023-11-19T13:53:23;11.13;;;2.05;;
44762;SDS011;30483;49.576;6.036;2023-11-19T13:55:49;9.07;;;1.95;;
44762;SDS011;30483;49.576;6.036;2023-11-19T13:58:15;11.73;;;2.20;;
44762;SDS011;30483;49.576;6.036;2023-11-19T14:00:41;8.65;;;1.88;;
44762;SDS011;30483;49.576;6.036;2023-11-19T14:03:08;10.02;;;2.05;;
44762;SDS011;30483;49.576;6.036;2023-11-19T14:05:37;8.75;;;1.80;;
44762;SDS011;30483;49.576;6.036;2023-11-19T14:08:04;9.70;;;1.70;;
44762;SDS011;30483;49.576;6.036;2023-11-19T14:10:36;9.45;;;2.10;;
44762;SDS011;30483;49.576;6.036;2023-11-19T14:13:04;10.48;;;1.73;;
44762;SDS011;30483;49.576;6.036;2023-11-19T14:15:30;6.65;;;1.52;;
44762;SDS011;30483;49.576;6.036;2023-11-19T14:17:56;7.07;;;1.98;;
44762;SDS011;30483;49.576;6.036;2023-11-19T14:20:22;10.45;;;2.15;;
44762;SDS011;30483;49.576;6.036;2023-11-19T14:22:48;9.00;;;1.80;;
44762;SDS011;30483;49.576;6.036;2023-11-19T14:25:15;6.97;;;1.63;;
44762;SDS011;30483;49.576;6.036;2023-11-19T14:27:42;9.73;;;2.15;;
44762;SDS011;30483;49.576;6.036;2023-11-19T14:30:09;9.40;;;1.80;;
44762;SDS011;30483;49.576;6.036;2023-11-19T14:32:39;8.27;;;1.75;;
44762;SDS011;30483;49.576;6.036;2023-11-19T14:35:05;9.20;;;2.05;;
44762;SDS011;30483;49.576;6.036;2023-11-19T14:37:31;8.13;;;1.85;;
44762;SDS011;30483;49.576;6.036;2023-11-19T14:39:57;6.03;;;1.75;;
44762;SDS011;30483;49.576;6.036;2023-11-19T14:42:24;14.80;;;2.63;;
44762;SDS011;30483;49.576;6.036;2023-11-19T14:44:52;12.93;;;2.55;;
44762;SDS011;30483;49.576;6.036;2023-11-19T14:47:19;14.20;;;2.88;;
44762;SDS011;30483;49.576;6.036;2023-11-19T14:49:45;14.98;;;2.50;;
44762;SDS011;30483;49.576;6.036;2023-11-19T14:52:11;8.20;;;2.03;;
44762;SDS011;30483;49.576;6.036;2023-11-19T14:54:38;11.10;;;2.60;;
44762;SDS011;30483;49.576;6.036;2023-11-19T14:57:07;10.90;;;2.40;;
44762;SDS011;30483;49.576;6.036;2023-11-19T14:59:33;8.45;;;2.03;;
44762;SDS011;30483;49.576;6.036;2023-11-19T15:01:59;12.00;;;2.25;;
44762;SDS011;30483;49.576;6.036;2023-11-19T15:04:28;8.80;;;2.33;;
44762;SDS011;30483;49.576;6.036;2023-11-19T15:06:57;9.35;;;2.15;;
44762;SDS011;30483;49.576;6.036;2023-11-19T15:09:23;8.05;;;1.92;;
44762;SDS011;30483;49.576;6.036;2023-11-19T15:11:49;8.95;;;2.03;;
44762;SDS011;30483;49.576;6.036;2023-11-19T15:14:15;5.50;;;1.90;;
44762;SDS011;30483;49.576;6.036;2023-11-19T15:16:43;8.57;;;2.05;;
44762;SDS011;30483;49.576;6.036;2023-11-19T15:19:10;10.50;;;2.30;;
44762;SDS011;30483;49.576;6.036;2023-11-19T15:21:37;8.27;;;2.05;;
44762;SDS011;30483;49.576;6.036;2023-11-19T15:24:03;10.43;;;1.90;;
44762;SDS011;30483;49.576;6.036;2023-11-19T15:26:29;9.27;;;2.28;;
44762;SDS011;30483;49.576;6.036;2023-11-19T15:28:55;8.02;;;2.08;;
44762;SDS011;30483;49.576;6.036;2023-11-19T15:31:23;10.63;;;1.80;;
44762;SDS011;30483;49.576;6.036;2023-11-19T15:33:49;7.18;;;2.00;;
44762;SDS011;30483;49.576;6.036;2023-11-19T15:36:16;10.13;;;2.35;;
44762;SDS011;30483;49.576;6.036;2023-11-19T15:38:42;9.02;;;2.25;;
44762;SDS011;30483;49.576;6.036;2023-11-19T15:41:08;9.32;;;2.05;;
44762;SDS011;30483;49.576;6.036;2023-11-19T15:43:34;9.68;;;1.98;;
44762;SDS011;30483;49.576;6.036;2023-11-19T15:46:01;8.40;;;2.03;;
44762;SDS011;30483;49.576;6.036;2023-11-19T15:48:27;10.50;;;2.17;;
44762;SDS011;30483;49.576;6.036;2023-11-19T15:50:52;8.10;;;1.60;;
44762;SDS011;30483;49.576;6.036;2023-11-19T15:53:18;6.93;;;1.55;;
44762;SDS011;30483;49.576;6.036;2023-11-19T15:55:45;8.07;;;1.98;;
44762;SDS011;30483;49.576;6.036;2023-11-19T15:58:12;7.65;;;2.03;;
44762;SDS011;30483;49.576;6.036;2023-11-19T16:00:38;7.00;;;2.08;;
44762;SDS011;30483;49.576;6.036;2023-11-19T16:03:05;8.60;;;2.33;;
44762;SDS011;30483;49.576;6.036;2023-11-19T16:05:32;6.25;;;1.60;;
44762;SDS011;30483;49.576;6.036;2023-11-19T16:07:58;8.73;;;2.17;;
44762;SDS011;30483;49.576;6.036;2023-11-19T16:10:24;8.23;;;2.00;;
44762;SDS011;30483;49.576;6.036;2023-11-19T16:12:50;7.10;;;2.17;;
44762;SDS011;30483;49.576;6.036;2023-11-19T16:15:16;6.57;;;1.67;;
44762;SDS011;30483;49.576;6.036;2023-11-19T16:17:43;8.93;;;2.25;;
44762;SDS011;30483;49.576;6.036;2023-11-19T16:20:09;7.30;;;1.80;;
44762;SDS011;30483;49.576;6.036;2023-11-19T16:22:36;9.35;;;2.30;;
44762;SDS011;30483;49.576;6.036;2023-11-19T16:25:02;9.32;;;2.50;;
44762;SDS011;30483;49.576;6.036;2023-11-19T16:27:28;8.48;;;2.17;;
44762;SDS011;30483;49.576;6.036;2023-11-19T16:29:54;9.10;;;2.25;;
44762;SDS011;30483;49.576;6.036;2023-11-19T16:32:20;7.88;;;2.03;;
44762;SDS011;30483;49.576;6.036;2023-11-19T16:34:47;7.53;;;2.08;;
44762;SDS011;30483;49.576;6.036;2023-11-19T16:37:16;6.07;;;1.75;;
44762;SDS011;30483;49.576;6.036;2023-11-19T16:39:42;5.18;;;1.88;;
44762;SDS011;30483;49.576;6.036;2023-11-19T16:42:09;6.55;;;2.00;;
44762;SDS011;30483;49.576;6.036;2023-11-19T16:44:35;6.10;;;2.15;;
44762;SDS011;30483;49.576;6.036;2023-11-19T16:47:01;7.07;;;1.83;;
44762;SDS011;30483;49.576;6.036;2023-11-19T16:49:28;5.38;;;1.60;;
44762;SDS011;30483;49.576;6.036;2023-11-19T16:51:53;7.57;;;1.88;;
44762;SDS011;30483;49.576;6.036;2023-11-19T16:54:19;9.50;;;2.40;;
44762;SDS011;30483;49.576;6.036;2023-11-19T16:56:46;8.63;;;2.60;;
44762;SDS011;30483;49.576;6.036;2023-11-19T16:59:12;8.10;;;2.00;;
44762;SDS011;30483;49.576;6.036;2023-11-19T17:01:40;6.40;;;1.80;;
44762;SDS011;30483;49.576;6.036;2023-11-19T17:04:06;8.60;;;1.95;;
44762;SDS011;30483;49.576;6.036;2023-11-19T17:06:37;7.72;;;2.00;;
44762;SDS011;30483;49.576;6.036;2023-11-19T17:09:03;7.80;;;2.20;;
44762;SDS011;30483;49.576;6.036;2023-11-19T17:11:29;8.25;;;2.13;;
44762;SDS011;30483;49.576;6.036;2023-11-19T17:13:55;9.57;;;2.45;;
44762;SDS011;30483;49.576;6.036;2023-11-19T17:16:21;7.82;;;2.05;;
44762;SDS011;30483;49.576;6.036;2023-11-19T17:18:48;7.30;;;2.08;;
44762;SDS011;30483;49.576;6.036;2023-11-19T17:21:14;6.43;;;2.08;;
44762;SDS011;30483;49.576;6.036;2023-11-19T17:23:40;8.35;;;2.10;;
44762;SDS011;30483;49.576;6.036;2023-11-19T17:26:06;8.35;;;2.40;;
44762;SDS011;30483;49.576;6.036;2023-11-19T17:28:32;5.07;;;1.73;;
44762;SDS011;30483;49.576;6.036;2023-11-19T17:31:00;7.45;;;2.28;;
44762;SDS011;30483;49.576;6.036;2023-11-19T17:33:26;8.60;;;2.22;;
44762;SDS011;30483;49.576;6.036;2023-11-19T17:35:53;8.25;;;2.30;;
44762;SDS011;30483;49.576;6.036;2023-11-19T17:38:20;6.15;;;2.13;;
44762;SDS011;30483;49.576;6.036;2023-11-19T17:40:49;7.32;;;2.10;;
44762;SDS011;30483;49.576;6.036;2023-11-19T17:43:15;7.53;;;2.10;;
44762;SDS011;30483;49.576;6.036;2023-11-19T17:45:41;6.13;;;2.10;;
44762;SDS011;30483;49.576;6.036;2023-11-19T17:48:07;7.25;;;2.13;;
44762;SDS011;30483;49.576;6.036;2023-11-19T17:50:33;8.07;;;2.17;;
44762;SDS011;30483;49.576;6.036;2023-11-19T17:53:00;6.07;;;2.20;;
44762;SDS011;30483;49.576;6.036;2023-11-19T17:55:26;9.18;;;2.28;;
44762;SDS011;30483;49.576;6.036;2023-11-19T17:57:52;7.75;;;2.30;;
44762;SDS011;30483;49.576;6.036;2023-11-19T18:00:18;8.82;;;2.38;;
44762;SDS011;30483;49.576;6.036;2023-11-19T18:02:44;6.45;;;2.28;;
44762;SDS011;30483;49.576;6.036;2023-11-19T18:05:14;10.13;;;2.42;;
44762;SDS011;30483;49.576;6.036;2023-11-19T18:10:07;6.95;;;2.10;;
44762;SDS011;30483;49.576;6.036;2023-11-19T18:12:33;8.50;;;2.28;;
44762;SDS011;30483;49.576;6.036;2023-11-19T18:15:00;7.43;;;2.30;;
44762;SDS011;30483;49.576;6.036;2023-11-19T18:17:26;7.03;;;2.40;;
44762;SDS011;30483;49.576;6.036;2023-11-19T18:19:52;8.50;;;2.53;;
44762;SDS011;30483;49.576;6.036;2023-11-19T18:22:18;7.70;;;2.22;;
44762;SDS011;30483;49.576;6.036;2023-11-19T18:24:44;7.60;;;2.40;;
44762;SDS011;30483;49.576;6.036;2023-11-19T18:27:10;7.55;;;2.20;;
44762;SDS011;30483;49.576;6.036;2023-11-19T18:29:37;12.13;;;2.38;;
44762;SDS011;30483;49.576;6.036;2023-11-19T18:32:05;11.05;;;2.50;;
44762;SDS011;30483;49.576;6.036;2023-11-19T18:34:34;7.55;;;2.40;;
44762;SDS011;30483;49.576;6.036;2023-11-19T18:37:01;8.75;;;2.42;;
44762;SDS011;30483;49.576;6.036;2023-11-19T18:39:28;9.52;;;2.55;;
44762;SDS011;30483;49.576;6.036;2023-11-19T18:41:54;11.38;;;2.30;;
44762;SDS011;30483;49.576;6.036;2023-11-19T18:44:20;9.52;;;2.83;;
44762;SDS011;30483;49.576;6.036;2023-11-19T18:46:46;8.32;;;2.47;;
44762;SDS011;30483;49.576;6.036;2023-11-19T18:49:12;11.85;;;2.70;;
44762;SDS011;30483;49.576;6.036;2023-11-19T18:51:38;10.63;;;3.05;;
44762;SDS011;30483;49.576;6.036;2023-11-19T18:54:04;5.25;;;2.33;;
44762;SDS011;30483;49.576;6.036;2023-11-19T18:56:31;6.82;;;2.40;;
44762;SDS011;30483;49.576;6.036;2023-11-19T18:58:57;9.52;;;2.15;;
44762;SDS011;30483;49.576;6.036;2023-11-19T19:01:24;9.18;;;2.60;;
44762;SDS011;30483;49.576;6.036;2023-11-19T19:06:21;10.35;;;2.50;;
44762;SDS011;30483;49.576;6.036;2023-11-19T19:08:47;9.23;;;2.70;;
44762;SDS011;30483;49.576;6.036;2023-11-19T19:11:15;9.35;;;2.20;;
44762;SDS011;30483;49.576;6.036;2023-11-19T19:13:44;8.25;;;2.42;;
44762;SDS011;30483;49.576;6.036;2023-11-19T19:16:10;8.95;;;2.50;;
44762;SDS011;30483;49.576;6.036;2023-11-19T19:18:37;9.43;;;2.35;;
44762;SDS011;30483;49.576;6.036;2023-11-19T19:21:03;9.30;;;2.33;;
44762;SDS011;30483;49.576;6.036;2023-11-19T19:23:29;7.55;;;2.22;;